BAW7026 EDDB-EGLC
Flight info
| Callsign | BAW7026 |
|---|---|
| Flight time | 1h 38m |
| Altitude | 36000 |
| Route | SUKIP3Q SUKIP Y206 BUREL/N0458F360 P203 HLZ L980 ROBEG DCT AMSAN DCT RKN DCT ODVIL DCT GALSO Q63 SUMUM |
| Aircraft | E190/M-SDE3GILORVW/S |
Departure
| Time | 2026-05-05 22:02 |
|---|---|
| Airport | Berlin Brandenburg Airport (EDDB) |
Arrival
| Time | 2026-05-05 23:40 |
|---|---|
| Airport | London City Airport (EGLC) |
| Time | Latitude | Longitude | Altitude | Speed | Heading |
|---|---|---|---|---|---|
| 2026-05-05 21:34 | 52.36247 | 13.50679 | 71 ft | 0 kts | 67° |
| 2026-05-05 21:50 | 52.36239 | 13.50646 | 141 ft | 4 kts | 70° |
| 2026-05-05 21:51 | 52.36230 | 13.50607 | 153 ft | 2 kts | 69° |
| 2026-05-05 21:51 | 52.36224 | 13.50572 | 152 ft | 4 kts | 90° |
| 2026-05-05 21:51 | 52.36230 | 13.50537 | 151 ft | 4 kts | 150° |
| 2026-05-05 21:51 | 52.36235 | 13.50532 | 151 ft | 4 kts | 159° |
| 2026-05-05 21:53 | 52.36228 | 13.50536 | 151 ft | 4 kts | 159° |
| 2026-05-05 21:54 | 52.36175 | 13.50569 | 151 ft | 12 kts | 159° |
| 2026-05-05 21:54 | 52.36077 | 13.50632 | 151 ft | 19 kts | 159° |
| 2026-05-05 21:54 | 52.35939 | 13.50720 | 151 ft | 23 kts | 158° |
| 2026-05-05 21:54 | 52.35807 | 13.50806 | 149 ft | 17 kts | 158° |
| 2026-05-05 21:55 | 52.35716 | 13.50784 | 148 ft | 13 kts | 234° |
| 2026-05-05 21:55 | 52.35686 | 13.50654 | 147 ft | 11 kts | 252° |
| 2026-05-05 21:55 | 52.35662 | 13.50552 | 147 ft | 9 kts | 248° |
| 2026-05-05 21:55 | 52.35635 | 13.50447 | 147 ft | 11 kts | 248° |
| 2026-05-05 21:56 | 52.35605 | 13.50326 | 147 ft | 13 kts | 248° |
| 2026-05-05 21:56 | 52.35570 | 13.50184 | 147 ft | 14 kts | 248° |
| 2026-05-05 21:56 | 52.35530 | 13.50023 | 147 ft | 16 kts | 248° |
| 2026-05-05 21:56 | 52.35485 | 13.49843 | 147 ft | 18 kts | 248° |
| 2026-05-05 21:57 | 52.35438 | 13.49647 | 147 ft | 19 kts | 248° |
| 2026-05-05 21:57 | 52.35387 | 13.49436 | 147 ft | 21 kts | 249° |
| 2026-05-05 21:57 | 52.35334 | 13.49210 | 148 ft | 22 kts | 249° |
| 2026-05-05 21:57 | 52.35278 | 13.48969 | 148 ft | 23 kts | 249° |
| 2026-05-05 21:58 | 52.35220 | 13.48710 | 148 ft | 25 kts | 250° |
| 2026-05-05 21:58 | 52.35158 | 13.48437 | 148 ft | 25 kts | 248° |
| 2026-05-05 21:58 | 52.35097 | 13.48179 | 148 ft | 23 kts | 249° |
| 2026-05-05 21:58 | 52.35038 | 13.47940 | 149 ft | 22 kts | 248° |
| 2026-05-05 21:59 | 52.34984 | 13.47717 | 149 ft | 21 kts | 248° |
| 2026-05-05 21:59 | 52.34931 | 13.47499 | 149 ft | 20 kts | 249° |
| 2026-05-05 21:59 | 52.34880 | 13.47280 | 150 ft | 21 kts | 249° |
| 2026-05-05 21:59 | 52.34829 | 13.47059 | 150 ft | 21 kts | 249° |
| 2026-05-05 22:00 | 52.34778 | 13.46836 | 150 ft | 21 kts | 249° |
| 2026-05-05 22:00 | 52.34679 | 13.46815 | 154 ft | 13 kts | 161° |
| 2026-05-05 22:00 | 52.34605 | 13.46852 | 157 ft | 9 kts | 157° |
| 2026-05-05 22:00 | 52.34577 | 13.46920 | 158 ft | 6 kts | 93° |
| 2026-05-05 22:01 | 52.34595 | 13.47015 | 158 ft | 20 kts | 70° |
| 2026-05-05 22:01 | 52.34722 | 13.47576 | 155 ft | 85 kts | 68° |
| 2026-05-05 22:01 | 52.35013 | 13.48780 | 157 ft | 142 kts | 68° |
| 2026-05-05 22:01 | 52.35406 | 13.50500 | 407 ft | 172 kts | 71° |
| 2026-05-05 22:02 | 52.35533 | 13.52410 | 999 ft | 168 kts | 93° |
| 2026-05-05 22:02 | 52.35455 | 13.54396 | 1201 ft | 181 kts | 89° |
| 2026-05-05 22:02 | 52.35455 | 13.56475 | 1562 ft | 183 kts | 101° |
| 2026-05-05 22:02 | 52.34904 | 13.58415 | 1566 ft | 204 kts | 134° |
| 2026-05-05 22:03 | 52.33572 | 13.59436 | 1403 ft | 234 kts | 176° |
| 2026-05-05 22:03 | 52.31978 | 13.58687 | 1653 ft | 248 kts | 217° |
| 2026-05-05 22:03 | 52.30964 | 13.56512 | 2400 ft | 238 kts | 241° |
| 2026-05-05 22:03 | 52.30195 | 13.54202 | 3164 ft | 225 kts | 237° |
| 2026-05-05 22:04 | 52.29223 | 13.52166 | 3443 ft | 236 kts | 226° |
| 2026-05-05 22:04 | 52.28067 | 13.50143 | 3588 ft | 251 kts | 227° |
| 2026-05-05 22:04 | 52.27008 | 13.47811 | 3787 ft | 262 kts | 242° |
| 2026-05-05 22:04 | 52.26572 | 13.44923 | 4187 ft | 266 kts | 270° |
| 2026-05-05 22:05 | 52.26694 | 13.41931 | 4730 ft | 263 kts | 273° |
| 2026-05-05 22:05 | 52.26850 | 13.38952 | 5182 ft | 263 kts | 273° |
| 2026-05-05 22:05 | 52.27004 | 13.35968 | 5608 ft | 264 kts | 273° |
| 2026-05-05 22:05 | 52.27158 | 13.32981 | 6049 ft | 264 kts | 274° |
| 2026-05-05 22:06 | 52.27311 | 13.29997 | 6463 ft | 264 kts | 274° |
| 2026-05-05 22:06 | 52.27466 | 13.27001 | 6848 ft | 265 kts | 274° |
| 2026-05-05 22:06 | 52.27620 | 13.24004 | 7226 ft | 266 kts | 273° |
| 2026-05-05 22:06 | 52.27775 | 13.20981 | 7608 ft | 267 kts | 273° |
| 2026-05-05 22:07 | 52.27931 | 13.17949 | 7964 ft | 268 kts | 273° |
| 2026-05-05 22:07 | 52.28088 | 13.14908 | 8309 ft | 269 kts | 273° |
| 2026-05-05 22:07 | 52.28243 | 13.11900 | 8633 ft | 270 kts | 273° |
| 2026-05-05 22:07 | 52.28401 | 13.08834 | 8955 ft | 271 kts | 273° |
| 2026-05-05 22:08 | 52.28560 | 13.05763 | 9287 ft | 272 kts | 273° |
| 2026-05-05 22:08 | 52.28720 | 13.02678 | 9589 ft | 273 kts | 273° |
| 2026-05-05 22:08 | 52.28880 | 12.99574 | 9879 ft | 275 kts | 273° |
| 2026-05-05 22:08 | 52.29040 | 12.96420 | 9957 ft | 284 kts | 273° |
| 2026-05-05 22:09 | 52.29213 | 12.93150 | 9995 ft | 294 kts | 273° |
| 2026-05-05 22:09 | 52.29393 | 12.89778 | 10051 ft | 301 kts | 274° |
| 2026-05-05 22:09 | 52.29573 | 12.86353 | 10260 ft | 302 kts | 273° |
| 2026-05-05 22:09 | 52.29749 | 12.82939 | 10512 ft | 301 kts | 273° |
| 2026-05-05 22:10 | 52.29922 | 12.79526 | 10734 ft | 301 kts | 273° |
| 2026-05-05 22:10 | 52.30095 | 12.76105 | 10924 ft | 302 kts | 273° |
| 2026-05-05 22:10 | 52.30266 | 12.72722 | 11128 ft | 303 kts | 273° |
| 2026-05-05 22:10 | 52.30440 | 12.69287 | 11330 ft | 304 kts | 273° |
| 2026-05-05 22:11 | 52.30614 | 12.65840 | 11548 ft | 305 kts | 273° |
| 2026-05-05 22:11 | 52.30786 | 12.62387 | 11727 ft | 305 kts | 273° |
| 2026-05-05 22:11 | 52.30960 | 12.58923 | 11906 ft | 306 kts | 273° |
| 2026-05-05 22:11 | 52.31133 | 12.55460 | 12084 ft | 306 kts | 273° |
| 2026-05-05 22:12 | 52.31307 | 12.51974 | 12313 ft | 312 kts | 272° |
| 2026-05-05 22:12 | 52.31479 | 12.48409 | 13096 ft | 316 kts | 272° |
| 2026-05-05 22:12 | 52.31645 | 12.44816 | 13960 ft | 318 kts | 272° |
| 2026-05-05 22:12 | 52.31812 | 12.41205 | 14807 ft | 319 kts | 272° |
| 2026-05-05 22:13 | 52.31978 | 12.37590 | 15675 ft | 319 kts | 272° |
| 2026-05-05 22:13 | 52.32148 | 12.33959 | 16484 ft | 322 kts | 271° |
| 2026-05-05 22:13 | 52.32321 | 12.30285 | 17222 ft | 326 kts | 271° |
| 2026-05-05 22:13 | 52.32497 | 12.26575 | 17970 ft | 329 kts | 271° |
| 2026-05-05 22:14 | 52.32676 | 12.22812 | 18657 ft | 333 kts | 271° |
| 2026-05-05 22:14 | 52.32855 | 12.19026 | 19317 ft | 336 kts | 271° |
| 2026-05-05 22:14 | 52.33038 | 12.15194 | 19979 ft | 339 kts | 271° |
| 2026-05-05 22:14 | 52.33223 | 12.11333 | 20596 ft | 343 kts | 271° |
| 2026-05-05 22:15 | 52.33410 | 12.07430 | 21191 ft | 346 kts | 271° |
| 2026-05-05 22:15 | 52.33597 | 12.03527 | 21754 ft | 349 kts | 271° |
| 2026-05-05 22:15 | 52.33789 | 11.99545 | 22305 ft | 352 kts | 270° |
| 2026-05-05 22:15 | 52.33982 | 11.95538 | 22893 ft | 356 kts | 270° |
| 2026-05-05 22:16 | 52.34175 | 11.91486 | 23391 ft | 360 kts | 270° |
| 2026-05-05 22:16 | 52.34371 | 11.87395 | 23889 ft | 362 kts | 270° |
| 2026-05-05 22:16 | 52.34560 | 11.83268 | 24329 ft | 367 kts | 269° |
| 2026-05-05 22:16 | 52.34658 | 11.79002 | 24349 ft | 383 kts | 268° |
| 2026-05-05 22:17 | 52.34721 | 11.74595 | 24616 ft | 391 kts | 268° |
| 2026-05-05 22:17 | 52.34798 | 11.70141 | 25120 ft | 392 kts | 268° |
| 2026-05-05 22:17 | 52.34884 | 11.65679 | 25628 ft | 393 kts | 268° |
| 2026-05-05 22:17 | 52.34975 | 11.61193 | 26100 ft | 395 kts | 268° |
| 2026-05-05 22:18 | 52.35065 | 11.56681 | 26559 ft | 398 kts | 268° |
| 2026-05-05 22:18 | 52.35153 | 11.52133 | 26975 ft | 400 kts | 268° |
| 2026-05-05 22:18 | 52.35242 | 11.47570 | 27377 ft | 402 kts | 268° |
| 2026-05-05 22:18 | 52.35327 | 11.43005 | 27854 ft | 402 kts | 268° |
| 2026-05-05 22:19 | 52.35413 | 11.38422 | 28233 ft | 404 kts | 268° |
| 2026-05-05 22:19 | 52.35497 | 11.33808 | 28606 ft | 406 kts | 268° |
| 2026-05-05 22:19 | 52.35552 | 11.30758 | 28839 ft | 407 kts | 268° |
| 2026-05-05 22:19 | 52.35659 | 11.24632 | 29492 ft | 405 kts | 268° |
| 2026-05-05 22:20 | 52.35738 | 11.20049 | 30024 ft | 402 kts | 268° |
| 2026-05-05 22:20 | 52.35789 | 11.16968 | 30335 ft | 401 kts | 268° |
| 2026-05-05 22:20 | 52.35887 | 11.10954 | 30866 ft | 399 kts | 268° |
| 2026-05-05 22:20 | 52.35936 | 11.07879 | 31118 ft | 398 kts | 268° |
| 2026-05-05 22:21 | 52.36005 | 11.03359 | 31474 ft | 397 kts | 268° |
| 2026-05-05 22:21 | 52.36073 | 10.98847 | 31815 ft | 396 kts | 268° |
| 2026-05-05 22:21 | 52.36140 | 10.94356 | 32168 ft | 395 kts | 267° |
| 2026-05-05 22:21 | 52.36203 | 10.89918 | 32516 ft | 393 kts | 267° |
| 2026-05-05 22:22 | 52.36266 | 10.85448 | 32800 ft | 393 kts | 267° |
| 2026-05-05 22:22 | 52.36315 | 10.80989 | 33097 ft | 391 kts | 264° |
| 2026-05-05 22:22 | 52.35963 | 10.76609 | 33365 ft | 386 kts | 256° |
| 2026-05-05 22:22 | 52.35468 | 10.72298 | 33651 ft | 385 kts | 256° |
| 2026-05-05 22:23 | 52.34957 | 10.68002 | 33926 ft | 384 kts | 256° |
| 2026-05-05 22:23 | 52.34441 | 10.63704 | 34122 ft | 385 kts | 256° |
| 2026-05-05 22:23 | 52.33923 | 10.59412 | 34313 ft | 385 kts | 256° |
| 2026-05-05 22:23 | 52.33402 | 10.55102 | 34514 ft | 386 kts | 256° |
| 2026-05-05 22:24 | 52.32881 | 10.50805 | 34710 ft | 386 kts | 256° |
| 2026-05-05 22:24 | 52.32356 | 10.46494 | 34904 ft | 386 kts | 256° |
| 2026-05-05 22:24 | 52.31835 | 10.42232 | 35073 ft | 388 kts | 256° |
| 2026-05-05 22:24 | 52.31302 | 10.37887 | 35176 ft | 391 kts | 256° |
| 2026-05-05 22:25 | 52.30767 | 10.33537 | 35391 ft | 390 kts | 256° |
| 2026-05-05 22:25 | 52.30234 | 10.29208 | 35657 ft | 388 kts | 256° |
| 2026-05-05 22:25 | 52.29698 | 10.24884 | 35850 ft | 388 kts | 256° |
| 2026-05-05 22:25 | 52.29175 | 10.20657 | 35974 ft | 373 kts | 256° |
| 2026-05-05 22:26 | 52.28671 | 10.16592 | 35872 ft | 356 kts | 256° |
| 2026-05-05 22:26 | 52.28191 | 10.12742 | 35880 ft | 338 kts | 256° |
| 2026-05-05 22:26 | 52.27731 | 10.09073 | 35875 ft | 321 kts | 255° |
| 2026-05-05 22:27 | 52.26841 | 10.02046 | 35912 ft | 319 kts | 255° |
| 2026-05-05 22:27 | 52.25926 | 9.94860 | 35936 ft | 327 kts | 255° |
| 2026-05-05 22:28 | 52.25126 | 9.87501 | 35997 ft | 337 kts | 264° |
| 2026-05-05 22:28 | 52.24883 | 9.79807 | 35850 ft | 340 kts | 264° |
| 2026-05-05 22:29 | 52.24669 | 9.72164 | 35880 ft | 337 kts | 264° |
| 2026-05-05 22:29 | 52.24461 | 9.64508 | 35917 ft | 339 kts | 264° |
| 2026-05-05 22:30 | 52.24247 | 9.56822 | 35896 ft | 338 kts | 264° |
| 2026-05-05 22:30 | 52.24027 | 9.49157 | 35916 ft | 339 kts | 264° |
| 2026-05-05 22:31 | 52.23802 | 9.41482 | 35912 ft | 338 kts | 264° |
| 2026-05-05 22:31 | 52.23574 | 9.33825 | 35917 ft | 338 kts | 264° |
| 2026-05-05 22:32 | 52.23341 | 9.26152 | 35905 ft | 338 kts | 264° |
| 2026-05-05 22:32 | 52.23107 | 9.18426 | 35937 ft | 346 kts | 264° |
| 2026-05-05 22:33 | 52.22862 | 9.10450 | 35906 ft | 357 kts | 264° |
| 2026-05-05 22:33 | 52.22608 | 9.02262 | 35920 ft | 367 kts | 264° |
| 2026-05-05 22:34 | 52.22338 | 8.93809 | 35894 ft | 379 kts | 264° |
| 2026-05-05 22:34 | 52.22056 | 8.85153 | 35911 ft | 390 kts | 264° |
| 2026-05-05 22:35 | 52.21758 | 8.76212 | 35899 ft | 401 kts | 264° |
| 2026-05-05 22:35 | 52.21446 | 8.67050 | 35915 ft | 407 kts | 264° |
| 2026-05-05 22:36 | 52.21100 | 8.57810 | 35883 ft | 407 kts | 262° |
| 2026-05-05 22:36 | 52.20531 | 8.48709 | 35904 ft | 403 kts | 262° |
| 2026-05-05 22:37 | 52.19967 | 8.39620 | 35928 ft | 403 kts | 262° |
| 2026-05-05 22:37 | 52.19414 | 8.30478 | 35918 ft | 406 kts | 262° |
| 2026-05-05 22:38 | 52.18855 | 8.21312 | 35915 ft | 406 kts | 262° |
| 2026-05-05 22:38 | 52.18288 | 8.12147 | 35917 ft | 406 kts | 262° |
| 2026-05-05 22:39 | 52.17718 | 8.03043 | 35916 ft | 406 kts | 262° |
| 2026-05-05 22:39 | 52.17138 | 7.93901 | 35919 ft | 406 kts | 262° |
| 2026-05-05 22:40 | 52.16550 | 7.84721 | 35913 ft | 408 kts | 262° |
| 2026-05-05 22:40 | 52.15953 | 7.75531 | 35907 ft | 409 kts | 262° |
| 2026-05-05 22:41 | 52.15347 | 7.66314 | 35913 ft | 409 kts | 262° |
| 2026-05-05 22:41 | 52.14735 | 7.57112 | 35925 ft | 409 kts | 262° |
| 2026-05-05 22:42 | 52.14113 | 7.47913 | 35928 ft | 409 kts | 262° |
| 2026-05-05 22:42 | 52.13487 | 7.38716 | 35933 ft | 409 kts | 262° |
| 2026-05-05 22:43 | 52.12850 | 7.29498 | 35928 ft | 410 kts | 262° |
| 2026-05-05 22:43 | 52.12210 | 7.20336 | 35936 ft | 410 kts | 262° |
| 2026-05-05 22:44 | 52.11562 | 7.11118 | 35938 ft | 410 kts | 261° |
| 2026-05-05 22:44 | 52.10910 | 7.01900 | 35941 ft | 410 kts | 261° |
| 2026-05-05 22:45 | 52.10242 | 6.92670 | 35944 ft | 412 kts | 261° |
| 2026-05-05 22:45 | 52.09565 | 6.83382 | 35938 ft | 414 kts | 261° |
| 2026-05-05 22:46 | 52.08884 | 6.74116 | 35936 ft | 415 kts | 261° |
| 2026-05-05 22:46 | 52.08195 | 6.64825 | 35935 ft | 414 kts | 261° |
| 2026-05-05 22:47 | 52.07491 | 6.55532 | 35936 ft | 414 kts | 261° |
| 2026-05-05 22:47 | 52.06780 | 6.46241 | 35940 ft | 414 kts | 261° |
| 2026-05-05 22:48 | 52.06074 | 6.36957 | 35944 ft | 414 kts | 261° |
| 2026-05-05 22:48 | 52.05350 | 6.27656 | 35939 ft | 416 kts | 261° |
| 2026-05-05 22:49 | 52.04628 | 6.18333 | 35939 ft | 416 kts | 261° |
| 2026-05-05 22:49 | 52.03888 | 6.09031 | 35940 ft | 415 kts | 261° |
| 2026-05-05 22:50 | 52.03138 | 5.99725 | 35941 ft | 415 kts | 261° |
| 2026-05-05 22:50 | 52.02394 | 5.90421 | 35940 ft | 415 kts | 261° |
| 2026-05-05 22:51 | 52.01652 | 5.81173 | 35941 ft | 416 kts | 261° |
| 2026-05-05 22:51 | 52.00933 | 5.72485 | 35943 ft | 417 kts | 261° |
| 2026-05-05 22:52 | 52.00160 | 5.63154 | 35937 ft | 417 kts | 261° |
| 2026-05-05 22:52 | 51.99396 | 5.53848 | 35940 ft | 417 kts | 261° |
| 2026-05-05 22:53 | 51.98604 | 5.44525 | 35946 ft | 417 kts | 260° |
| 2026-05-05 22:53 | 51.97793 | 5.35216 | 35940 ft | 417 kts | 260° |
| 2026-05-05 22:54 | 51.96989 | 5.25881 | 35945 ft | 418 kts | 260° |
| 2026-05-05 22:54 | 51.96180 | 5.16552 | 35947 ft | 418 kts | 260° |
| 2026-05-05 22:55 | 51.95348 | 5.07220 | 35951 ft | 418 kts | 260° |
| 2026-05-05 22:55 | 51.94515 | 4.97897 | 35952 ft | 418 kts | 260° |
| 2026-05-05 22:56 | 51.93690 | 4.88593 | 35957 ft | 418 kts | 260° |
| 2026-05-05 22:56 | 51.92850 | 4.79255 | 35956 ft | 419 kts | 260° |
| 2026-05-05 22:57 | 51.92007 | 4.69907 | 35955 ft | 420 kts | 259° |
| 2026-05-05 22:57 | 51.91126 | 4.60564 | 35967 ft | 420 kts | 259° |
| 2026-05-05 22:58 | 51.90261 | 4.51206 | 35967 ft | 420 kts | 259° |
| 2026-05-05 22:58 | 51.89386 | 4.41853 | 35968 ft | 420 kts | 259° |
| 2026-05-05 22:59 | 51.88507 | 4.32562 | 35968 ft | 420 kts | 259° |
| 2026-05-05 22:59 | 51.87618 | 4.23212 | 35964 ft | 420 kts | 259° |
| 2026-05-05 23:00 | 51.86315 | 4.09440 | 35894 ft | 392 kts | 259° |
| 2026-05-05 23:00 | 51.85899 | 4.05186 | 35865 ft | 373 kts | 259° |
| 2026-05-05 23:00 | 51.85481 | 4.01162 | 35963 ft | 352 kts | 258° |
| 2026-05-05 23:01 | 51.85082 | 3.97347 | 35891 ft | 337 kts | 259° |
| 2026-05-05 23:01 | 51.84732 | 3.93685 | 35981 ft | 325 kts | 259° |
| 2026-05-05 23:01 | 51.84016 | 3.86368 | 35982 ft | 336 kts | 258° |
| 2026-05-05 23:02 | 51.82839 | 3.78969 | 36028 ft | 344 kts | 253° |
| 2026-05-05 23:02 | 51.81610 | 3.71412 | 36068 ft | 350 kts | 255° |
| 2026-05-05 23:03 | 51.81018 | 3.67543 | 35476 ft | 360 kts | 255° |
| 2026-05-05 23:03 | 51.80434 | 3.63671 | 35347 ft | 348 kts | 255° |
| 2026-05-05 23:03 | 51.79863 | 3.59885 | 34991 ft | 348 kts | 255° |
| 2026-05-05 23:03 | 51.79287 | 3.56080 | 34572 ft | 348 kts | 255° |
| 2026-05-05 23:04 | 51.78708 | 3.52275 | 34100 ft | 349 kts | 255° |
| 2026-05-05 23:04 | 51.78128 | 3.48470 | 33608 ft | 348 kts | 255° |
| 2026-05-05 23:04 | 51.77553 | 3.44699 | 33194 ft | 345 kts | 254° |
| 2026-05-05 23:04 | 51.76977 | 3.40939 | 32707 ft | 344 kts | 254° |
| 2026-05-05 23:05 | 51.76401 | 3.37193 | 32274 ft | 345 kts | 255° |
| 2026-05-05 23:05 | 51.75820 | 3.33423 | 31797 ft | 347 kts | 254° |
| 2026-05-05 23:05 | 51.75236 | 3.29639 | 31350 ft | 349 kts | 254° |
| 2026-05-05 23:05 | 51.74648 | 3.25837 | 30870 ft | 350 kts | 254° |
| 2026-05-05 23:06 | 51.74058 | 3.22033 | 30409 ft | 350 kts | 254° |
| 2026-05-05 23:06 | 51.73469 | 3.18228 | 29934 ft | 349 kts | 255° |
| 2026-05-05 23:06 | 51.73081 | 3.14372 | 29507 ft | 348 kts | 259° |
| 2026-05-05 23:06 | 51.72738 | 3.10538 | 29009 ft | 352 kts | 259° |
| 2026-05-05 23:07 | 51.72391 | 3.06611 | 28575 ft | 354 kts | 259° |
| 2026-05-05 23:07 | 51.72047 | 3.02680 | 28079 ft | 354 kts | 259° |
| 2026-05-05 23:07 | 51.71704 | 2.98759 | 27621 ft | 352 kts | 260° |
| 2026-05-05 23:07 | 51.71364 | 2.94866 | 27166 ft | 349 kts | 260° |
| 2026-05-05 23:08 | 51.71026 | 2.91010 | 26677 ft | 348 kts | 260° |
| 2026-05-05 23:08 | 51.70686 | 2.87151 | 26232 ft | 346 kts | 259° |
| 2026-05-05 23:08 | 51.70346 | 2.83321 | 25777 ft | 345 kts | 260° |
| 2026-05-05 23:08 | 51.70006 | 2.79498 | 25316 ft | 345 kts | 260° |
| 2026-05-05 23:09 | 51.69779 | 2.76956 | 25007 ft | 344 kts | 260° |
| 2026-05-05 23:09 | 51.69322 | 2.71856 | 24406 ft | 343 kts | 260° |
| 2026-05-05 23:09 | 51.69092 | 2.69292 | 24116 ft | 342 kts | 260° |
| 2026-05-05 23:09 | 51.68755 | 2.65552 | 23659 ft | 341 kts | 259° |
| 2026-05-05 23:10 | 51.68416 | 2.61776 | 23168 ft | 338 kts | 260° |
| 2026-05-05 23:10 | 51.68086 | 2.58055 | 22757 ft | 334 kts | 260° |
| 2026-05-05 23:10 | 51.67754 | 2.54344 | 22299 ft | 334 kts | 260° |
| 2026-05-05 23:10 | 51.67424 | 2.50652 | 21871 ft | 333 kts | 260° |
| 2026-05-05 23:11 | 51.67090 | 2.46961 | 21409 ft | 332 kts | 259° |
| 2026-05-05 23:11 | 51.66755 | 2.43303 | 20984 ft | 329 kts | 259° |
| 2026-05-05 23:11 | 51.66416 | 2.39661 | 20540 ft | 328 kts | 259° |
| 2026-05-05 23:11 | 51.66082 | 2.36031 | 20109 ft | 328 kts | 260° |
| 2026-05-05 23:12 | 51.65746 | 2.32399 | 19682 ft | 328 kts | 260° |
| 2026-05-05 23:12 | 51.65410 | 2.28772 | 19246 ft | 327 kts | 260° |
| 2026-05-05 23:12 | 51.65073 | 2.25146 | 18815 ft | 326 kts | 259° |
| 2026-05-05 23:12 | 51.64735 | 2.21544 | 18374 ft | 325 kts | 260° |
| 2026-05-05 23:13 | 51.64397 | 2.17945 | 17920 ft | 323 kts | 260° |
| 2026-05-05 23:13 | 51.64062 | 2.14384 | 17526 ft | 320 kts | 260° |
| 2026-05-05 23:13 | 51.63875 | 2.10822 | 17077 ft | 320 kts | 275° |
| 2026-05-05 23:13 | 51.64414 | 2.07414 | 16726 ft | 318 kts | 288° |
| 2026-05-05 23:14 | 51.65180 | 2.04064 | 16262 ft | 319 kts | 290° |
| 2026-05-05 23:14 | 51.65959 | 2.00731 | 15828 ft | 318 kts | 290° |
| 2026-05-05 23:14 | 51.66723 | 1.97404 | 15403 ft | 315 kts | 289° |
| 2026-05-05 23:14 | 51.67469 | 1.94096 | 14989 ft | 313 kts | 289° |
| 2026-05-05 23:15 | 51.68201 | 1.90822 | 14577 ft | 310 kts | 289° |
| 2026-05-05 23:15 | 51.68928 | 1.87560 | 14175 ft | 307 kts | 289° |
| 2026-05-05 23:15 | 51.69645 | 1.84328 | 13764 ft | 305 kts | 289° |
| 2026-05-05 23:15 | 51.70354 | 1.81134 | 13358 ft | 301 kts | 289° |
| 2026-05-05 23:16 | 51.71055 | 1.77970 | 12967 ft | 297 kts | 289° |
| 2026-05-05 23:16 | 51.71746 | 1.74845 | 12574 ft | 295 kts | 290° |
| 2026-05-05 23:16 | 51.72430 | 1.71747 | 12185 ft | 292 kts | 290° |
| 2026-05-05 23:16 | 51.73106 | 1.68677 | 11810 ft | 289 kts | 289° |
| 2026-05-05 23:17 | 51.73778 | 1.65624 | 11431 ft | 288 kts | 290° |
| 2026-05-05 23:17 | 51.74443 | 1.62601 | 11035 ft | 286 kts | 289° |
| 2026-05-05 23:17 | 51.74774 | 1.59466 | 10642 ft | 284 kts | 270° |
| 2026-05-05 23:17 | 51.74615 | 1.56307 | 10302 ft | 282 kts | 263° |
| 2026-05-05 23:18 | 51.74336 | 1.53176 | 9905 ft | 281 kts | 263° |
| 2026-05-05 23:18 | 51.74077 | 1.50078 | 9539 ft | 276 kts | 264° |
| 2026-05-05 23:18 | 51.73858 | 1.47031 | 9253 ft | 269 kts | 265° |
| 2026-05-05 23:18 | 51.73619 | 1.44097 | 9095 ft | 259 kts | 256° |
| 2026-05-05 23:19 | 51.72708 | 1.41694 | 8964 ft | 250 kts | 220° |
| 2026-05-05 23:19 | 51.71254 | 1.40392 | 8997 ft | 239 kts | 202° |
| 2026-05-05 23:19 | 51.69665 | 1.39515 | 8992 ft | 238 kts | 200° |
| 2026-05-05 23:19 | 51.68095 | 1.38599 | 8997 ft | 241 kts | 204° |
| 2026-05-05 23:20 | 51.66573 | 1.37598 | 9011 ft | 242 kts | 205° |
| 2026-05-05 23:20 | 51.65017 | 1.36510 | 8824 ft | 248 kts | 206° |
| 2026-05-05 23:20 | 51.63459 | 1.35396 | 8786 ft | 240 kts | 206° |
| 2026-05-05 23:20 | 51.61938 | 1.34308 | 8815 ft | 239 kts | 206° |
| 2026-05-05 23:21 | 51.60411 | 1.33215 | 8858 ft | 240 kts | 206° |
| 2026-05-05 23:21 | 51.58833 | 1.32337 | 8886 ft | 243 kts | 185° |
| 2026-05-05 23:21 | 51.57146 | 1.32621 | 8911 ft | 247 kts | 173° |
| 2026-05-05 23:21 | 51.55455 | 1.32355 | 8719 ft | 245 kts | 208° |
| 2026-05-05 23:22 | 51.54257 | 1.30558 | 8689 ft | 236 kts | 245° |
| 2026-05-05 23:22 | 51.53839 | 1.28025 | 8536 ft | 239 kts | 265° |
| 2026-05-05 23:22 | 51.53680 | 1.25326 | 8179 ft | 242 kts | 265° |
| 2026-05-05 23:22 | 51.53405 | 1.22694 | 7965 ft | 237 kts | 259° |
| 2026-05-05 23:23 | 51.53022 | 1.20142 | 7755 ft | 233 kts | 257° |
| 2026-05-05 23:23 | 51.52579 | 1.17668 | 7614 ft | 229 kts | 255° |
| 2026-05-05 23:23 | 51.52111 | 1.15214 | 7479 ft | 231 kts | 254° |
| 2026-05-05 23:23 | 51.51628 | 1.12728 | 7297 ft | 234 kts | 255° |
| 2026-05-05 23:24 | 51.51150 | 1.10259 | 7129 ft | 234 kts | 255° |
| 2026-05-05 23:24 | 51.50778 | 1.07717 | 6911 ft | 234 kts | 263° |
| 2026-05-05 23:24 | 51.50573 | 1.05120 | 6637 ft | 234 kts | 266° |
| 2026-05-05 23:24 | 51.50376 | 1.02536 | 6394 ft | 233 kts | 264° |
| 2026-05-05 23:25 | 51.50152 | 0.99960 | 6131 ft | 232 kts | 263° |
| 2026-05-05 23:25 | 51.49909 | 0.97434 | 6002 ft | 226 kts | 263° |
| 2026-05-05 23:25 | 51.49667 | 0.94949 | 5995 ft | 226 kts | 263° |
| 2026-05-05 23:25 | 51.49418 | 0.92447 | 6004 ft | 229 kts | 263° |
| 2026-05-05 23:26 | 51.49167 | 0.89912 | 6016 ft | 230 kts | 262° |
| 2026-05-05 23:26 | 51.48912 | 0.87374 | 6030 ft | 231 kts | 263° |
| 2026-05-05 23:26 | 51.48659 | 0.84831 | 6049 ft | 232 kts | 262° |
| 2026-05-05 23:26 | 51.48402 | 0.82270 | 5999 ft | 233 kts | 263° |
| 2026-05-05 23:27 | 51.48145 | 0.79715 | 5987 ft | 231 kts | 263° |
| 2026-05-05 23:27 | 51.47891 | 0.77166 | 5979 ft | 232 kts | 263° |
| 2026-05-05 23:27 | 51.47635 | 0.74614 | 5990 ft | 231 kts | 262° |
| 2026-05-05 23:27 | 51.47376 | 0.72074 | 6005 ft | 232 kts | 263° |
| 2026-05-05 23:28 | 51.47120 | 0.69548 | 6009 ft | 232 kts | 262° |
| 2026-05-05 23:28 | 51.46861 | 0.67002 | 6002 ft | 231 kts | 262° |
| 2026-05-05 23:28 | 51.46602 | 0.64460 | 5999 ft | 231 kts | 262° |
| 2026-05-05 23:28 | 51.46341 | 0.61916 | 5995 ft | 231 kts | 263° |
| 2026-05-05 23:29 | 51.46082 | 0.59368 | 6000 ft | 231 kts | 262° |
| 2026-05-05 23:29 | 51.45820 | 0.56825 | 6001 ft | 232 kts | 262° |
| 2026-05-05 23:29 | 51.45558 | 0.54267 | 6004 ft | 232 kts | 263° |
| 2026-05-05 23:29 | 51.45296 | 0.51710 | 5997 ft | 232 kts | 262° |
| 2026-05-05 23:30 | 51.45033 | 0.49160 | 5999 ft | 231 kts | 262° |
| 2026-05-05 23:30 | 51.44769 | 0.46619 | 5995 ft | 231 kts | 262° |
| 2026-05-05 23:30 | 51.44507 | 0.44083 | 5998 ft | 230 kts | 262° |
| 2026-05-05 23:30 | 51.44245 | 0.41548 | 5999 ft | 230 kts | 262° |
| 2026-05-05 23:31 | 51.43979 | 0.39011 | 5996 ft | 231 kts | 262° |
| 2026-05-05 23:31 | 51.43713 | 0.36466 | 5997 ft | 231 kts | 263° |
| 2026-05-05 23:31 | 51.43449 | 0.33933 | 5993 ft | 230 kts | 262° |
| 2026-05-05 23:31 | 51.43180 | 0.31365 | 5641 ft | 241 kts | 263° |
| 2026-05-05 23:32 | 51.42949 | 0.28682 | 5249 ft | 243 kts | 270° |
| 2026-05-05 23:32 | 51.43030 | 0.26006 | 4912 ft | 239 kts | 278° |
| 2026-05-05 23:32 | 51.43209 | 0.23360 | 4301 ft | 241 kts | 277° |
| 2026-05-05 23:32 | 51.43347 | 0.20681 | 3665 ft | 246 kts | 276° |
| 2026-05-05 23:33 | 51.43444 | 0.17966 | 3220 ft | 241 kts | 276° |
| 2026-05-05 23:33 | 51.43529 | 0.15307 | 2821 ft | 236 kts | 276° |
| 2026-05-05 23:33 | 51.43614 | 0.12706 | 2452 ft | 230 kts | 277° |
| 2026-05-05 23:33 | 51.43694 | 0.10233 | 2289 ft | 215 kts | 277° |
| 2026-05-05 23:34 | 51.43768 | 0.07902 | 2124 ft | 204 kts | 277° |
| 2026-05-05 23:34 | 51.43840 | 0.05712 | 2049 ft | 190 kts | 277° |
| 2026-05-05 23:34 | 51.43906 | 0.03654 | 1986 ft | 181 kts | 277° |
| 2026-05-05 23:34 | 51.43968 | 0.01651 | 1949 ft | 180 kts | 278° |
| 2026-05-05 23:35 | 51.44037 | -0.00372 | 1956 ft | 183 kts | 277° |
| 2026-05-05 23:35 | 51.44102 | -0.02411 | 1987 ft | 183 kts | 277° |
| 2026-05-05 23:35 | 51.44164 | -0.04475 | 2007 ft | 185 kts | 277° |
| 2026-05-05 23:35 | 51.44221 | -0.06542 | 1980 ft | 186 kts | 277° |
| 2026-05-05 23:36 | 51.44288 | -0.08569 | 1988 ft | 183 kts | 281° |
| 2026-05-05 23:36 | 51.44793 | -0.10291 | 2038 ft | 164 kts | 326° |
| 2026-05-05 23:36 | 51.45777 | -0.10866 | 2078 ft | 147 kts | 352° |
| 2026-05-05 23:36 | 51.46748 | -0.11213 | 2005 ft | 139 kts | 349° |
| 2026-05-05 23:37 | 51.47668 | -0.11581 | 1935 ft | 134 kts | 350° |
| 2026-05-05 23:37 | 51.48564 | -0.11831 | 1917 ft | 128 kts | 6° |
| 2026-05-05 23:37 | 51.49362 | -0.11318 | 1913 ft | 126 kts | 41° |
| 2026-05-05 23:37 | 51.49820 | -0.10108 | 1951 ft | 128 kts | 66° |
| 2026-05-05 23:38 | 51.50179 | -0.08744 | 2018 ft | 134 kts | 59° |
| 2026-05-05 23:38 | 51.50612 | -0.07438 | 2051 ft | 132 kts | 59° |
| 2026-05-05 23:38 | 51.50886 | -0.06016 | 1994 ft | 139 kts | 85° |
| 2026-05-05 23:38 | 51.50792 | -0.04467 | 1957 ft | 140 kts | 89° |
| 2026-05-05 23:39 | 51.50780 | -0.02905 | 1799 ft | 144 kts | 84° |
| 2026-05-05 23:39 | 51.50739 | -0.01252 | 1339 ft | 150 kts | 90° |
| 2026-05-05 23:39 | 51.50671 | 0.00416 | 951 ft | 150 kts | 89° |
| 2026-05-05 23:39 | 51.50632 | 0.02054 | 617 ft | 146 kts | 90° |
| 2026-05-05 23:40 | 51.50580 | 0.03697 | 226 ft | 148 kts | 92° |
| 2026-05-05 23:40 | 51.50532 | 0.05296 | 28 ft | 134 kts | 91° |
| 2026-05-05 23:40 | 51.50497 | 0.06511 | 23 ft | 77 kts | 94° |
| 2026-05-05 23:40 | 51.50520 | 0.06892 | 22 ft | 6 kts | 107° |
| 2026-05-05 23:41 | 51.50508 | 0.06899 | 22 ft | 0 kts | 185° |